Time;durP1;ratioP1;P1;durP2;ratioP2;P2;SDS_P1;SDS_P2;PMS_P1;PMS_P2;Temp;Humidity;BMP_temperature;BMP_pressure;BME280_temperature;BME280_humidity;BME280_pressure;Samples;Min_cycle;Max_cycle;Signal;HPM_P1;HPM_P2
2024/04/20 00:00:53;;;;;;;8.37;2.10;;;8.70;90.00;;;;;;11061011;26;22066;-60
2024/04/20 00:06:04;;;;;;;6.07;2.33;;;8.60;90.10;;;;;;11056593;26;20239;-60
2024/04/20 00:11:09;;;;;;;5.70;2.23;;;8.60;90.20;;;;;;11058443;26;22473;-61
2024/04/20 00:16:18;;;;;;;6.33;1.70;;;8.60;90.20;;;;;;11059130;26;20417;-60
2024/04/20 00:21:23;;;;;;;7.07;1.90;;;8.50;90.30;;;;;;11056988;26;20233;-60
2024/04/20 00:26:29;;;;;;;5.60;2.30;;;8.60;90.30;;;;;;11062165;26;20586;-60
2024/04/20 00:31:37;;;;;;;5.00;1.90;;;8.50;90.10;;;;;;11056217;26;20238;-59
2024/04/20 00:36:42;;;;;;;6.47;2.33;;;8.50;90.30;;;;;;11054440;26;20349;-60
2024/04/20 00:41:49;;;;;;;6.73;2.20;;;8.40;90.30;;;;;;11057962;26;20237;-60
2024/04/20 00:47:01;;;;;;;5.50;2.43;;;8.40;90.30;;;;;;11055724;26;20346;-61
2024/04/20 00:52:09;;;;;;;8.63;2.20;;;8.30;90.20;;;;;;11058434;26;20234;-60
2024/04/20 00:57:14;;;;;;;4.57;2.23;;;8.30;90.30;;;;;;11056272;26;21168;-61
2024/04/20 01:02:22;;;;;;;5.97;2.07;;;8.30;90.40;;;;;;11054526;26;20234;-60
2024/04/20 01:07:28;;;;;;;5.60;2.13;;;8.40;90.50;;;;;;11057240;26;20258;-59
2024/04/20 01:12:33;;;;;;;5.23;2.17;;;8.40;90.30;;;;;;11054000;26;20232;-60
2024/04/20 01:17:41;;;;;;;4.27;1.93;;;8.40;90.30;;;;;;11054459;26;20242;-60
2024/04/20 01:22:48;;;;;;;4.33;2.03;;;8.40;90.30;;;;;;11056694;26;20337;-60
2024/04/20 01:27:56;;;;;;;5.03;2.07;;;8.40;90.40;;;;;;11054938;26;20237;-61
2024/04/20 01:33:02;;;;;;;5.63;2.10;;;8.40;90.30;;;;;;11054958;26;20918;-60
2024/04/20 01:38:07;;;;;;;7.47;2.60;;;8.40;90.30;;;;;;11054964;26;20341;-61
2024/04/20 01:43:15;;;;;;;4.57;2.13;;;8.40;90.30;;;;;;11058027;26;20332;-61
2024/04/20 01:48:21;;;;;;;5.87;2.30;;;8.40;90.40;;;;;;11054044;26;20355;-61
2024/04/20 01:53:26;;;;;;;5.53;2.40;;;8.40;90.40;;;;;;11053177;26;20237;-60
2024/04/20 01:58:35;;;;;;;4.43;2.30;;;8.30;90.20;;;;;;11047784;26;20249;-60
2024/04/20 02:03:40;;;;;;;5.57;2.03;;;8.30;90.30;;;;;;11048948;26;20259;-60
2024/04/20 02:08:46;;;;;;;8.33;2.60;;;8.30;90.30;;;;;;11049072;26;20254;-60
2024/04/20 02:13:54;;;;;;;6.17;2.30;;;8.30;90.40;;;;;;11053077;26;20317;-61
2024/04/20 02:18:59;;;;;;;5.30;2.13;;;8.30;90.30;;;;;;10990436;26;20250;-60
2024/04/20 02:24:05;;;;;;;6.70;2.33;;;8.20;90.40;;;;;;11052698;26;20363;-61
2024/04/20 02:29:13;;;;;;;7.40;3.00;;;8.10;90.40;;;;;;11058153;26;20323;-61
2024/04/20 02:34:18;;;;;;;6.50;2.80;;;8.10;90.50;;;;;;11058919;26;20711;-61
2024/04/20 02:39:23;;;;;;;9.50;2.63;;;8.10;90.60;;;;;;11058040;26;20298;-60
2024/04/20 02:44:31;;;;;;;7.33;3.10;;;8.10;90.80;;;;;;11057458;26;20242;-60
2024/04/20 02:49:37;;;;;;;6.60;2.80;;;8.10;90.80;;;;;;11063512;26;20289;-61
2024/04/20 02:54:43;;;;;;;6.10;2.50;;;8.10;90.70;;;;;;11058374;26;20352;-61
2024/04/20 02:59:51;;;;;;;6.07;2.63;;;8.00;90.70;;;;;;11072595;26;20326;-61
2024/04/20 03:04:57;;;;;;;6.53;3.27;;;8.00;90.70;;;;;;11068165;26;20242;-62
2024/04/20 03:10:02;;;;;;;8.70;2.80;;;7.90;90.80;;;;;;11060941;26;20816;-61
2024/04/20 03:15:10;;;;;;;5.50;2.93;;;7.90;91.40;;;;;;11057299;26;20246;-61
2024/04/20 03:20:16;;;;;;;6.33;2.50;;;7.90;90.90;;;;;;11059027;26;22004;-61
2024/04/20 03:25:21;;;;;;;6.73;2.80;;;7.90;90.70;;;;;;11058792;26;20339;-62
2024/04/20 03:30:29;;;;;;;10.27;2.90;;;7.90;90.70;;;;;;11059120;26;20335;-61
2024/04/20 03:35:35;;;;;;;5.30;2.60;;;7.90;90.80;;;;;;11058956;26;21956;-61
2024/04/20 03:40:40;;;;;;;5.30;2.77;;;7.90;90.90;;;;;;11057713;26;20705;-62
2024/04/20 03:45:54;;;;;;;6.27;2.40;;;7.90;90.90;;;;;;11059963;26;20242;-61
2024/04/20 03:51:00;;;;;;;6.73;2.40;;;7.90;90.70;;;;;;11057421;26;20334;-60
2024/04/20 03:56:06;;;;;;;4.50;2.30;;;7.90;90.90;;;;;;11057995;26;20242;-60
2024/04/20 04:01:13;;;;;;;5.77;2.20;;;7.90;90.80;;;;;;11057043;26;20249;-62
2024/04/20 04:06:19;;;;;;;3.40;1.97;;;7.90;90.80;;;;;;11060511;26;20241;-59
2024/04/20 04:11:24;;;;;;;8.23;2.40;;;7.90;90.90;;;;;;11057256;26;20599;-61
2024/04/20 04:16:32;;;;;;;3.47;2.03;;;8.00;91.00;;;;;;11063782;26;20249;-63
2024/04/20 04:21:38;;;;;;;4.50;1.87;;;8.00;90.90;;;;;;11064963;26;20234;-62
2024/04/20 04:26:43;;;;;;;5.93;2.20;;;8.00;90.90;;;;;;11056198;26;20251;-63
2024/04/20 04:31:51;;;;;;;4.30;1.93;;;8.00;90.90;;;;;;11053410;26;20326;-62
2024/04/20 04:36:57;;;;;;;4.57;1.97;;;7.90;91.00;;;;;;11054369;26;20567;-62
2024/04/20 04:42:02;;;;;;;5.10;1.97;;;7.90;91.10;;;;;;11056755;26;20598;-61
2024/04/20 04:47:10;;;;;;;5.70;2.20;;;7.90;91.10;;;;;;11058251;26;20349;-62
2024/04/20 04:52:16;;;;;;;2.20;1.63;;;8.00;91.40;;;;;;11057326;26;20249;-62
2024/04/20 04:57:21;;;;;;;2.93;1.80;;;8.00;91.20;;;;;;11056721;26;20245;-61
2024/04/20 05:02:29;;;;;;;4.60;2.27;;;8.00;91.20;;;;;;11065249;26;20479;-62
2024/04/20 05:07:35;;;;;;;5.60;1.80;;;8.10;91.60;;;;;;11110257;26;20304;-62
2024/04/20 05:12:40;;;;;;;3.87;1.47;;;8.10;91.40;;;;;;11132856;26;20221;-60
2024/04/20 05:17:48;;;;;;;3.17;1.73;;;8.10;91.30;;;;;;11163153;21;20264;-67
2024/04/20 05:22:54;;;;;;;2.63;1.30;;;8.10;91.30;;;;;;11129073;26;20228;-67
2024/04/20 05:27:59;;;;;;;2.47;1.57;;;8.20;91.40;;;;;;11086115;26;20237;-67
2024/04/20 05:33:07;;;;;;;4.03;1.83;;;8.20;91.40;;;;;;11056270;26;20237;-67
2024/04/20 05:38:13;;;;;;;4.40;1.40;;;8.30;91.30;;;;;;11065134;26;20977;-67
2024/04/20 05:43:18;;;;;;;2.83;1.70;;;8.40;91.30;;;;;;11063931;26;20232;-66
2024/04/20 05:48:28;;;;;;;5.57;1.60;;;8.40;91.40;;;;;;11065555;26;20242;-67
2024/04/20 05:53:33;;;;;;;4.43;1.60;;;8.40;91.40;;;;;;11067958;26;20328;-67
2024/04/20 05:58:39;;;;;;;4.53;2.10;;;8.40;91.30;;;;;;11069545;26;20241;-66
2024/04/20 06:03:47;;;;;;;6.57;2.40;;;8.50;91.50;;;;;;11075527;26;20279;-66
2024/04/20 06:08:52;;;;;;;7.13;3.17;;;8.50;91.50;;;;;;11014452;26;20349;-68
2024/04/20 06:13:57;;;;;;;5.20;2.70;;;8.50;91.50;;;;;;11074673;26;21080;-68
2024/04/20 06:19:05;;;;;;;3.70;2.60;;;8.60;91.80;;;;;;11073240;26;20237;-67
2024/04/20 06:24:11;;;;;;;6.70;3.03;;;8.60;91.90;;;;;;11074422;26;20249;-66
2024/04/20 06:29:18;;;;;;;5.53;3.23;;;8.70;91.70;;;;;;11067326;26;20354;-68
2024/04/20 06:34:26;;;;;;;5.30;2.70;;;8.70;91.50;;;;;;11066314;26;20250;-68
2024/04/20 06:39:32;;;;;;;4.13;1.80;;;8.70;91.50;;;;;;11067743;26;21680;-68
2024/04/20 06:44:37;;;;;;;4.50;1.33;;;8.60;92.00;;;;;;11071331;26;20916;-67
2024/04/20 06:49:45;;;;;;;4.00;1.50;;;8.60;91.10;;;;;;11064588;26;20252;-66
2024/04/20 06:54:51;;;;;;;6.40;1.50;;;8.60;91.10;;;;;;11070226;26;20307;-65
2024/04/20 06:59:59;;;;;;;2.07;1.07;;;8.70;91.30;;;;;;11065670;26;20245;-66
2024/04/20 07:05:08;;;;;;;3.67;0.93;;;8.80;90.90;;;;;;11072341;26;20635;-65
2024/04/20 07:10:14;;;;;;;2.33;1.07;;;8.80;91.20;;;;;;11070574;26;20249;-62
2024/04/20 07:15:19;;;;;;;3.10;1.10;;;8.80;90.90;;;;;;11067096;26;20246;-66
2024/04/20 07:20:27;;;;;;;3.70;2.13;;;8.80;90.90;;;;;;11069052;26;21797;-68
2024/04/20 07:25:33;;;;;;;2.73;1.67;;;8.90;91.10;;;;;;11069853;26;20246;-68
2024/04/20 07:30:40;;;;;;;3.47;1.30;;;8.90;91.00;;;;;;11071435;26;20231;-68
2024/04/20 07:35:48;;;;;;;3.83;1.50;;;8.80;91.40;;;;;;11070023;26;22377;-67
2024/04/20 07:40:53;;;;;;;3.80;1.40;;;8.80;91.30;;;;;;11068995;26;20233;-69
2024/04/20 07:45:59;;;;;;;2.60;1.10;;;8.90;91.10;;;;;;11073357;26;20246;-69
2024/04/20 07:51:07;;;;;;;2.13;1.00;;;8.90;91.30;;;;;;11071004;26;20296;-66
2024/04/20 07:56:12;;;;;;;3.27;1.23;;;8.90;91.10;;;;;;11074243;26;20233;-68
2024/04/20 08:01:18;;;;;;;3.67;1.40;;;8.90;91.10;;;;;;11071872;26;20234;-67
2024/04/20 08:06:26;;;;;;;2.47;0.87;;;9.00;91.30;;;;;;11068187;26;21994;-67
2024/04/20 08:11:32;;;;;;;3.07;1.40;;;9.00;91.00;;;;;;11070009;26;20335;-66
2024/04/20 08:16:37;;;;;;;1.53;0.93;;;9.00;91.30;;;;;;11071709;26;20249;-66
2024/04/20 08:21:45;;;;;;;2.10;1.13;;;9.00;91.10;;;;;;11070888;26;22569;-66
2024/04/20 08:26:50;;;;;;;1.97;1.20;;;9.00;91.50;;;;;;11068413;26;22503;-65
2024/04/20 08:31:56;;;;;;;4.07;1.50;;;9.00;91.00;;;;;;11068099;26;20230;-65
2024/04/20 08:37:04;;;;;;;2.37;1.30;;;9.10;91.20;;;;;;11064219;26;20324;-66
2024/04/20 08:42:16;;;;;;;2.20;1.33;;;9.20;91.00;;;;;;11009560;26;20326;-65
2024/04/20 08:47:22;;;;;;;1.47;1.10;;;9.20;90.80;;;;;;11066876;26;20234;-64
2024/04/20 08:52:30;;;;;;;2.83;1.37;;;9.30;91.10;;;;;;11069524;26;20684;-66
2024/04/20 08:57:38;;;;;;;1.87;1.10;;;9.40;90.80;;;;;;11066708;26;22056;-65
2024/04/20 09:02:44;;;;;;;2.27;1.10;;;9.40;90.60;;;;;;11066915;26;20246;-66
2024/04/20 09:07:52;;;;;;;3.47;1.50;;;9.50;90.80;;;;;;11066453;26;20235;-65
2024/04/20 09:12:57;;;;;;;5.23;1.20;;;9.70;90.70;;;;;;11072853;26;20294;-65
2024/04/20 09:18:03;;;;;;;2.00;1.00;;;10.00;89.80;;;;;;11075235;26;20241;-67
2024/04/20 09:23:11;;;;;;;2.87;1.10;;;10.00;89.30;;;;;;11074878;26;20334;-66
2024/04/20 09:28:18;;;;;;;4.50;1.30;;;9.90;90.20;;;;;;11072269;26;20313;-66
2024/04/20 09:33:24;;;;;;;1.07;0.70;;;9.90;90.30;;;;;;11071452;26;20717;-65
2024/04/20 09:38:32;;;;;;;1.97;0.80;;;10.00;90.10;;;;;;11071290;26;20616;-70
2024/04/20 09:43:39;;;;;;;2.57;0.90;;;10.10;89.30;;;;;;11072697;26;20342;-68
2024/04/20 09:48:47;;;;;;;2.70;0.77;;;10.30;90.10;;;;;;11075884;26;20241;-67
2024/04/20 09:53:56;;;;;;;2.20;0.87;;;10.40;89.10;;;;;;11071834;26;20320;-67
2024/04/20 09:59:03;;;;;;;2.40;1.42;;;10.50;89.20;;;;;;11070215;26;20368;-66
2024/04/20 10:04:10;;;;;;;0.70;0.70;;;10.50;89.20;;;;;;11075625;26;20234;-66
2024/04/20 10:09:21;;;;;;;2.25;0.70;;;10.50;88.40;;;;;;11072141;26;20347;-67
2024/04/20 10:14:26;;;;;;;2.92;1.08;;;10.40;87.30;;;;;;11075998;26;20318;-66
2024/04/20 10:19:44;;;;;;;1.65;0.60;;;10.50;88.80;;;;;;11073966;26;20242;-67
2024/04/20 10:25:02;;;;;;;2.47;0.70;;;10.70;87.90;;;;;;11073093;26;22518;-69
2024/04/20 10:30:10;;;;;;;2.47;0.80;;;11.00;88.70;;;;;;11072177;26;20286;-67
2024/04/20 10:35:20;;;;;;;1.95;0.80;;;11.20;86.90;;;;;;11071581;26;20249;-67
2024/04/20 10:40:31;;;;;;;1.50;1.10;;;11.20;87.50;;;;;;11072349;26;20348;-67
2024/04/20 10:45:37;;;;;;;4.53;1.02;;;11.10;87.50;;;;;;11072526;26;20609;-67
2024/04/20 10:50:43;;;;;;;3.13;0.85;;;11.00;87.40;;;;;;11069097;26;20233;-67
2024/04/20 10:55:58;;;;;;;2.70;1.00;;;11.10;87.80;;;;;;11076662;26;20238;-67
2024/04/20 11:01:03;;;;;;;4.80;1.08;;;11.20;87.50;;;;;;11071883;26;20300;-67
2024/04/20 11:06:09;;;;;;;3.92;0.90;;;11.50;87.10;;;;;;11071333;26;20242;-68
2024/04/20 11:11:17;;;;;;;2.05;0.90;;;11.60;86.60;;;;;;11068850;26;20234;-65
2024/04/20 11:16:23;;;;;;;2.58;0.73;;;11.50;86.20;;;;;;11069725;26;20253;-65
2024/04/20 11:21:28;;;;;;;3.33;1.10;;;11.30;85.80;;;;;;11068506;26;20879;-66
2024/04/20 11:26:36;;;;;;;1.92;0.52;;;11.20;86.00;;;;;;11065656;26;20234;-66
2024/04/20 11:31:41;;;;;;;1.65;0.30;;;11.30;85.70;;;;;;11068972;26;20233;-66
2024/04/20 11:36:47;;;;;;;3.65;0.65;;;11.30;85.40;;;;;;11062062;26;20400;-66
2024/04/20 11:42:04;;;;;;;2.25;0.70;;;11.30;83.90;;;;;;11062860;26;20308;-66
2024/04/20 11:47:17;;;;;;;2.00;0.70;;;11.60;84.50;;;;;;11059218;26;20245;-68
2024/04/20 11:57:54;;;;;;;2.70;1.30;;;12.10;83.20;;;;;;11059789;26;22216;-68
2024/04/20 12:03:00;;;;;;;3.53;1.05;;;12.60;82.50;;;;;;11068289;26;20333;-68
2024/04/20 12:08:06;;;;;;;5.13;1.42;;;12.70;82.40;;;;;;11056532;26;20254;-67
2024/04/20 12:13:14;;;;;;;3.30;0.90;;;12.70;82.80;;;;;;11059053;26;20233;-67
2024/04/20 12:18:20;;;;;;;2.00;0.80;;;12.40;81.90;;;;;;11059911;26;20250;-67
2024/04/20 12:23:25;;;;;;;2.78;0.80;;;11.90;82.20;;;;;;11064858;26;20348;-67
2024/04/20 12:28:33;;;;;;;4.13;1.00;;;11.90;83.50;;;;;;11061922;26;20324;-68
2024/04/20 12:33:38;;;;;;;3.97;1.00;;;12.60;83.90;;;;;;11062965;26;20250;-67
2024/04/20 12:38:44;;;;;;;3.88;0.75;;;12.80;82.90;;;;;;11056706;26;20336;-67
2024/04/20 12:43:52;;;;;;;3.58;0.80;;;12.40;81.00;;;;;;11065584;26;20250;-67
2024/04/20 12:48:58;;;;;;;3.50;1.15;;;12.00;81.90;;;;;;11056313;26;20250;-67
2024/04/20 12:54:03;;;;;;;2.50;0.80;;;11.80;81.50;;;;;;11055706;26;20316;-67
2024/04/20 12:59:11;;;;;;;2.67;1.05;;;11.90;81.30;;;;;;11055965;26;20366;-67
2024/04/20 13:04:17;;;;;;;1.73;0.40;;;12.40;82.10;;;;;;11063608;26;20245;-67
2024/04/20 13:09:22;;;;;;;1.42;0.60;;;12.90;81.50;;;;;;11062311;26;20363;-66
2024/04/20 13:14:30;;;;;;;1.55;0.80;;;13.30;80.30;;;;;;11061004;26;20245;-66
2024/04/20 13:19:36;;;;;;;2.60;0.80;;;13.80;79.90;;;;;;11058396;26;20603;-68
2024/04/20 13:24:41;;;;;;;1.95;0.85;;;14.30;78.70;;;;;;11060544;26;20245;-67
2024/04/20 13:29:49;;;;;;;3.10;0.77;;;14.70;76.80;;;;;;11051833;26;20901;-68
2024/04/20 13:34:57;;;;;;;1.98;0.80;;;14.40;77.90;;;;;;11049479;26;20347;-67
2024/04/20 13:40:03;;;;;;;1.80;0.40;;;13.80;78.40;;;;;;11050878;26;20246;-69
2024/04/20 13:45:11;;;;;;;2.63;0.90;;;13.20;79.00;;;;;;11055211;26;20245;-68
2024/04/20 13:50:17;;;;;;;1.10;0.52;;;12.60;80.80;;;;;;11045765;26;20314;-67
2024/04/20 13:55:22;;;;;;;3.40;0.90;;;12.20;81.80;;;;;;11048472;26;20364;-67
2024/04/20 14:00:30;;;;;;;2.30;0.85;;;12.00;81.30;;;;;;11057078;26;20241;-68
2024/04/20 14:05:36;;;;;;;3.58;1.38;;;11.90;82.20;;;;;;11070877;26;20246;-67
2024/04/20 14:10:41;;;;;;;3.05;1.20;;;12.20;82.40;;;;;;11075278;26;20339;-66
2024/04/20 14:15:58;;;;;;;2.15;1.02;;;12.60;81.40;;;;;;11063106;26;22595;-68
2024/04/20 14:21:05;;;;;;;5.68;1.30;;;12.70;81.80;;;;;;11066756;26;21928;-67
2024/04/20 14:26:10;;;;;;;2.33;0.90;;;13.30;81.40;;;;;;11058825;26;20249;-67
2024/04/20 14:31:21;;;;;;;3.28;0.88;;;13.90;80.60;;;;;;11004950;26;20246;-67
2024/04/20 14:36:26;;;;;;;3.22;0.95;;;14.70;79.80;;;;;;11057266;26;20249;-66
2024/04/20 14:41:32;;;;;;;2.92;1.00;;;15.50;79.40;;;;;;11064572;26;20242;-66
2024/04/20 14:46:40;;;;;;;2.92;0.80;;;15.90;77.90;;;;;;11064793;26;20320;-67
2024/04/20 14:51:45;;;;;;;2.95;0.98;;;15.20;76.20;;;;;;11066603;26;20261;-67
2024/04/20 14:56:51;;;;;;;3.47;1.00;;;14.60;76.90;;;;;;11061461;26;20257;-67
2024/04/20 15:01:59;;;;;;;2.28;0.60;;;14.00;77.40;;;;;;11066553;26;20354;-68
2024/04/20 15:07:04;;;;;;;2.58;0.57;;;13.60;78.50;;;;;;11068048;26;20253;-67
2024/04/20 15:12:14;;;;;;;1.10;0.40;;;13.50;79.00;;;;;;11070190;26;20350;-68
2024/04/20 15:17:22;;;;;;;2.60;1.27;;;14.20;79.20;;;;;;11067658;26;20258;-66
2024/04/20 15:22:27;;;;;;;2.58;1.40;;;14.90;78.10;;;;;;11067483;26;20686;-67
2024/04/20 15:27:32;;;;;;;4.03;1.38;;;15.60;78.10;;;;;;11065116;26;20362;-67
2024/04/20 15:32:41;;;;;;;5.07;2.08;;;15.50;76.40;;;;;;11066393;26;20312;-67
2024/04/20 15:37:47;;;;;;;5.50;1.55;;;14.90;75.70;;;;;;11060017;26;20318;-67
2024/04/20 15:42:53;;;;;;;6.30;2.00;;;14.20;76.10;;;;;;11057500;26;20250;-68
2024/04/20 15:48:02;;;;;;;3.08;1.15;;;13.70;78.40;;;;;;11058997;26;20253;-69
2024/04/20 15:53:08;;;;;;;2.75;1.42;;;13.40;78.90;;;;;;11068540;26;20363;-67
2024/04/20 15:58:14;;;;;;;2.35;0.90;;;13.10;80.10;;;;;;11063580;26;20311;-67
2024/04/20 16:03:22;;;;;;;2.13;1.05;;;12.80;80.70;;;;;;11063013;26;20242;-67
2024/04/20 16:08:27;;;;;;;3.22;1.02;;;12.80;81.20;;;;;;11062244;26;20245;-67
2024/04/20 16:13:33;;;;;;;4.10;1.10;;;12.90;81.30;;;;;;11063806;26;20245;-67
2024/04/20 16:18:42;;;;;;;4.25;1.20;;;12.80;81.40;;;;;;11057996;26;20257;-67
2024/04/20 16:23:47;;;;;;;4.07;1.40;;;12.70;81.80;;;;;;11069640;26;20238;-67
2024/04/20 16:28:53;;;;;;;4.18;2.08;;;12.50;82.40;;;;;;11072674;26;20355;-68
2024/04/20 16:34:03;;;;;;;3.53;1.50;;;12.30;83.80;;;;;;11066255;26;20253;-67
2024/04/20 16:39:08;;;;;;;3.85;1.65;;;12.10;83.40;;;;;;11060427;26;20253;-67
2024/04/20 16:44:14;;;;;;;4.10;1.15;;;12.00;84.00;;;;;;11058211;26;20339;-67
2024/04/20 16:49:23;;;;;;;3.45;1.33;;;11.70;83.90;;;;;;11064437;26;20268;-67
2024/04/20 16:54:28;;;;;;;2.70;1.10;;;11.30;84.80;;;;;;11060764;26;20310;-67
2024/04/20 16:59:33;;;;;;;3.15;1.00;;;11.10;90.20;;;;;;11058019;26;20371;-67
2024/04/20 17:04:41;;;;;;;9.90;3.28;;;11.00;91.50;;;;;;11054478;26;20250;-67
2024/04/20 17:09:47;;;;;;;2.72;1.30;;;10.90;91.10;;;;;;11052335;26;20250;-68
2024/04/20 17:14:52;;;;;;;1.90;0.85;;;10.70;90.10;;;;;;11060279;26;20246;-67
2024/04/20 17:20:00;;;;;;;1.67;0.85;;;10.60;89.10;;;;;;11062247;26;20242;-67
2024/04/20 17:25:07;;;;;;;1.20;0.90;;;10.40;90.30;;;;;;11067871;26;20245;-66
2024/04/20 17:30:13;;;;;;;1.55;0.82;;;10.40;89.80;;;;;;11070333;26;20246;-66
2024/04/20 17:35:29;;;;;;;2.80;0.90;;;10.50;89.80;;;;;;11080549;26;20244;-65
2024/04/20 17:40:34;;;;;;;4.63;3.83;;;10.50;89.80;;;;;;11073189;26;20322;-66
2024/04/20 17:45:39;;;;;;;2.13;1.35;;;10.60;90.00;;;;;;11079815;26;20238;-65
2024/04/20 17:50:55;;;;;;;1.67;1.00;;;10.60;89.10;;;;;;11076627;26;20241;-66
2024/04/20 17:56:03;;;;;;;1.02;0.80;;;10.50;89.20;;;;;;11073440;26;20238;-65
2024/04/20 18:01:09;;;;;;;2.38;1.10;;;10.40;88.60;;;;;;11078021;26;20238;-65
2024/04/20 18:06:19;;;;;;;2.70;1.40;;;10.30;88.60;;;;;;11071746;26;21401;-66
2024/04/20 18:11:24;;;;;;;3.08;1.42;;;10.30;89.50;;;;;;11074371;26;22265;-66
2024/04/20 18:16:30;;;;;;;2.13;1.27;;;10.20;89.10;;;;;;11073934;26;21743;-66
2024/04/20 18:21:38;;;;;;;1.98;1.30;;;10.20;89.40;;;;;;11073296;26;20389;-66
2024/04/20 18:26:43;;;;;;;2.05;1.20;;;10.10;90.10;;;;;;11070072;26;20324;-66
2024/04/20 18:31:49;;;;;;;5.80;1.90;;;10.00;90.10;;;;;;11076389;26;20299;-66
2024/04/20 18:36:57;;;;;;;4.65;2.10;;;10.00;90.30;;;;;;11073095;26;20241;-65
2024/04/20 18:42:02;;;;;;;2.22;1.33;;;10.00;90.80;;;;;;11073341;26;20234;-66
2024/04/20 18:47:08;;;;;;;3.45;1.75;;;10.00;91.20;;;;;;11075673;26;20241;-65
2024/04/20 18:52:16;;;;;;;3.08;1.88;;;10.10;91.10;;;;;;11073483;26;20653;-65
2024/04/20 18:57:21;;;;;;;5.00;2.25;;;10.10;92.00;;;;;;11073385;26;20239;-66
2024/04/20 19:02:27;;;;;;;1.63;1.00;;;10.10;92.20;;;;;;11073146;26;20233;-67
2024/04/20 19:07:35;;;;;;;2.35;1.40;;;10.00;91.60;;;;;;11071932;26;20694;-66
2024/04/20 19:12:40;;;;;;;1.33;0.88;;;10.00;92.50;;;;;;11072232;26;20327;-66
2024/04/20 19:17:45;;;;;;;1.50;0.68;;;10.00;91.80;;;;;;11070827;26;20899;-66
2024/04/20 19:22:54;;;;;;;1.92;0.70;;;9.90;91.40;;;;;;11074681;26;20360;-67
2024/04/20 19:27:59;;;;;;;1.17;0.70;;;9.90;91.70;;;;;;11073737;26;20238;-66
2024/04/20 19:33:05;;;;;;;2.03;0.82;;;9.90;92.00;;;;;;11072037;26;20336;-66
2024/04/20 19:38:13;;;;;;;8.10;3.30;;;9.90;92.60;;;;;;11068257;26;20968;-66
2024/04/20 19:43:18;;;;;;;4.47;1.88;;;9.90;92.10;;;;;;11010702;26;20308;-67
2024/04/20 19:48:24;;;;;;;1.93;1.10;;;9.90;91.60;;;;;;11069989;26;20238;-65
2024/04/20 19:53:34;;;;;;;2.50;1.30;;;9.90;91.40;;;;;;11072856;26;20701;-64
2024/04/20 19:58:39;;;;;;;3.20;1.60;;;9.90;91.30;;;;;;11067786;26;20237;-63
2024/04/20 20:03:45;;;;;;;2.37;1.70;;;9.80;91.60;;;;;;11067326;26;20328;-65
2024/04/20 20:08:53;;;;;;;2.60;1.77;;;9.80;91.50;;;;;;11070445;26;20233;-66
2024/04/20 20:13:59;;;;;;;4.60;3.30;;;9.60;92.30;;;;;;11071405;26;20299;-66
2024/04/20 20:19:04;;;;;;;3.23;1.50;;;9.60;92.30;;;;;;11064519;26;20250;-65
2024/04/20 20:24:13;;;;;;;3.27;1.13;;;9.60;91.70;;;;;;11069230;26;22013;-65
2024/04/20 20:29:18;;;;;;;2.77;1.27;;;9.60;91.50;;;;;;11071299;26;20611;-64
2024/04/20 20:34:23;;;;;;;1.83;1.23;;;9.60;91.50;;;;;;11069376;26;20347;-64
2024/04/20 20:39:31;;;;;;;4.30;1.20;;;9.60;91.60;;;;;;11070796;26;20349;-65
2024/04/20 20:44:37;;;;;;;5.17;1.20;;;9.50;92.30;;;;;;11069193;26;20242;-65
2024/04/20 20:49:42;;;;;;;4.80;1.30;;;9.50;92.10;;;;;;11068226;26;20246;-66
2024/04/20 20:54:50;;;;;;;4.43;1.37;;;9.40;91.80;;;;;;11070453;26;20234;-65
2024/04/20 20:59:55;;;;;;;7.50;1.60;;;9.30;91.40;;;;;;11065888;26;20367;-65
2024/04/20 21:05:01;;;;;;;6.33;1.60;;;9.20;91.40;;;;;;11065405;26;21610;-65
2024/04/20 21:10:09;;;;;;;6.80;1.83;;;9.10;91.10;;;;;;11069939;26;20324;-66
2024/04/20 21:15:15;;;;;;;11.73;2.25;;;9.10;91.00;;;;;;11027813;26;992177;-66
2024/04/20 21:20:20;;;;;;;11.90;2.47;;;9.10;91.50;;;;;;11067483;26;20330;-66
2024/04/20 21:25:28;;;;;;;10.67;2.07;;;9.10;91.20;;;;;;11067846;26;20341;-66
2024/04/20 21:30:34;;;;;;;8.10;1.93;;;9.00;91.40;;;;;;11063763;26;20334;-67
2024/04/20 21:35:39;;;;;;;10.23;2.27;;;9.00;91.30;;;;;;11068415;26;20343;-67
2024/04/20 21:40:48;;;;;;;8.57;2.70;;;9.10;91.40;;;;;;11065752;26;20242;-66
2024/04/20 21:45:54;;;;;;;9.07;2.43;;;9.10;91.00;;;;;;11063574;26;22067;-67
2024/04/20 21:51:06;;;;;;;9.70;2.00;;;9.10;91.00;;;;;;11066812;26;20233;-65
2024/04/20 21:56:15;;;;;;;10.50;2.23;;;9.00;90.90;;;;;;11064197;26;22081;-67
2024/04/20 22:01:20;;;;;;;10.00;2.40;;;9.00;91.40;;;;;;11062172;26;20234;-66
2024/04/20 22:06:26;;;;;;;10.23;2.30;;;9.00;91.10;;;;;;11070141;26;20341;-66
2024/04/20 22:11:34;;;;;;;12.60;2.93;;;9.00;90.80;;;;;;11065761;26;20246;-66
2024/04/20 22:16:39;;;;;;;10.93;2.90;;;9.00;90.80;;;;;;11063710;26;20233;-67
2024/04/20 22:21:45;;;;;;;8.53;2.40;;;9.00;90.50;;;;;;11074305;26;20230;-65
2024/04/20 22:26:53;;;;;;;12.73;2.80;;;8.90;90.00;;;;;;11082983;26;20242;-65
2024/04/20 22:31:59;;;;;;;13.07;2.83;;;8.80;90.10;;;;;;11164417;26;21757;-63
2024/04/20 22:37:04;;;;;;;8.40;2.43;;;8.80;90.10;;;;;;11170294;26;20293;-65
2024/04/20 22:42:12;;;;;;;12.57;2.43;;;8.80;90.10;;;;;;11164221;26;20274;-68
2024/04/20 22:47:18;;;;;;;9.03;2.00;;;8.70;89.40;;;;;;11164282;26;20307;-67
2024/04/20 22:52:23;;;;;;;13.70;2.63;;;8.70;89.70;;;;;;11159045;26;20282;-64
2024/04/20 22:57:31;;;;;;;9.63;2.20;;;8.70;89.70;;;;;;11159159;26;20281;-64
2024/04/20 23:02:37;;;;;;;12.27;2.83;;;8.70;89.30;;;;;;11164072;26;20885;-66
2024/04/20 23:07:42;;;;;;;8.53;2.23;;;8.60;88.80;;;;;;11162526;26;20289;-64
2024/04/20 23:12:50;;;;;;;14.10;2.80;;;8.60;88.80;;;;;;11166834;26;20309;-64
2024/04/20 23:17:56;;;;;;;12.10;2.33;;;8.50;88.70;;;;;;11168704;26;20341;-63
2024/04/20 23:23:01;;;;;;;11.50;2.57;;;8.40;88.80;;;;;;11166431;26;20314;-64
2024/04/20 23:28:09;;;;;;;8.87;2.50;;;8.30;89.00;;;;;;11162745;26;20738;-62
2024/04/20 23:33:14;;;;;;;9.93;2.73;;;8.30;89.00;;;;;;11156064;21;21633;-61
2024/04/20 23:38:20;;;;;;;10.13;2.03;;;8.30;88.50;;;;;;11059511;26;20660;-59
2024/04/20 23:43:28;;;;;;;6.90;2.00;;;8.30;88.20;;;;;;11064374;26;20355;-61
2024/04/20 23:48:33;;;;;;;13.13;2.43;;;8.30;88.20;;;;;;11057690;26;21045;-61
2024/04/20 23:53:39;;;;;;;13.23;2.13;;;8.20;88.40;;;;;;11058296;26;20250;-61
2024/04/20 23:58:47;;;;;;;10.07;2.10;;;8.20;87.50;;;;;;11059830;26;20234;-61
